createdAt,value
2023-12-16T00:01:48.163Z,101761.06
2023-12-16T00:06:50.133Z,101763.91
2023-12-16T00:11:52.932Z,101748.31
2023-12-16T00:16:55.213Z,101750.84
2023-12-16T00:21:57.121Z,101758.47
2023-12-16T00:26:59.109Z,101752.19
2023-12-16T00:32:00.790Z,101762.16
2023-12-16T00:37:07.045Z,101792.97
2023-12-16T00:42:08.846Z,101782.50
2023-12-16T00:47:10.497Z,101791.38
2023-12-16T00:52:12.159Z,101783.34
2023-12-16T00:57:13.824Z,101778.97
2023-12-16T01:02:15.469Z,101800.97
2023-12-16T01:07:17.193Z,101804.13
2023-12-16T01:12:18.965Z,101801.59
2023-12-16T01:17:21.604Z,101793.81
2023-12-16T01:22:23.328Z,101795.16
2023-12-16T01:27:25.792Z,101784.47
2023-12-16T01:32:27.913Z,101790.75
2023-12-16T01:37:30.601Z,101809.28
2023-12-16T01:42:32.261Z,101816.75
2023-12-16T01:47:34.036Z,101811.66
2023-12-16T01:52:36.035Z,101805.38
2023-12-16T01:57:38.190Z,101808.13
2023-12-16T02:02:45.729Z,101805.13
2023-12-16T02:07:47.691Z,101792.59
2023-12-16T02:12:50.513Z,101785.25
2023-12-16T02:17:52.220Z,101792.09
2023-12-16T02:22:54.151Z,101803.75
2023-12-16T02:27:55.795Z,101812.16
2023-12-16T02:32:58.300Z,101809.94
2023-12-16T02:38:00.075Z,101806.47
2023-12-16T02:43:02.982Z,101806.81
2023-12-16T02:48:05.003Z,101808.91
2023-12-16T02:53:08.091Z,101795.25
2023-12-16T02:58:09.863Z,101812.53
2023-12-16T03:03:12.174Z,101812.44
2023-12-16T03:08:13.860Z,101832.75
2023-12-16T03:13:15.549Z,101835.53
2023-12-16T03:18:17.314Z,101844.78
2023-12-16T03:23:19.081Z,101848.81
2023-12-16T03:28:20.744Z,101858.16
2023-12-16T03:33:22.496Z,101865.38
2023-12-16T03:38:24.215Z,101862.88
2023-12-16T03:43:25.875Z,101859.41
2023-12-16T03:48:27.632Z,101843.47
2023-12-16T03:53:29.366Z,101834.78
2023-12-16T03:58:31.396Z,101843.72
2023-12-16T04:03:33.080Z,101831.44
2023-12-16T04:08:34.737Z,101829.88
2023-12-16T04:13:37.011Z,101829.59
2023-12-16T04:18:39.152Z,101840.75
2023-12-16T04:23:40.886Z,101851.41
2023-12-16T04:28:42.538Z,101863.91
2023-12-16T04:33:45.228Z,101861.38
2023-12-16T04:38:47.179Z,101868.00
2023-12-16T04:43:48.878Z,101882.72
2023-12-16T04:48:50.685Z,101881.19
2023-12-16T04:53:52.392Z,101889.50
2023-12-16T04:58:54.032Z,101897.50
2023-12-16T05:03:56.440Z,101895.69
2023-12-16T05:08:58.287Z,101906.47
2023-12-16T05:13:59.932Z,101895.13
2023-12-16T05:19:01.755Z,101878.31
2023-12-16T05:24:03.877Z,101885.75
2023-12-16T05:29:05.571Z,101892.41
2023-12-16T05:34:07.391Z,101897.53
2023-12-16T05:39:09.086Z,101891.34
2023-12-16T05:44:10.731Z,101883.16
2023-12-16T05:49:12.489Z,101885.75
2023-12-16T05:54:14.237Z,101889.88
2023-12-16T05:59:15.958Z,101889.88
2023-12-16T06:04:17.679Z,101892.63
2023-12-16T06:09:19.370Z,101882.38
2023-12-16T06:14:21.047Z,101881.53
2023-12-16T06:19:25.869Z,101876.09
2023-12-16T06:24:29.176Z,101880.41
2023-12-16T06:29:31.521Z,101896.50
2023-12-16T06:34:33.221Z,101903.38
2023-12-16T06:39:34.932Z,101916.72
2023-12-16T06:44:37.813Z,101938.63
2023-12-16T06:49:39.650Z,101956.34
2023-12-16T06:54:41.317Z,101947.56
2023-12-16T06:59:43.005Z,101957.03
2023-12-16T07:04:44.781Z,101964.03
2023-12-16T07:09:46.547Z,101966.84
2023-12-16T07:14:48.671Z,101963.50
2023-12-16T07:19:50.619Z,101968.25
2023-12-16T07:24:52.419Z,101959.44
2023-12-16T07:29:54.174Z,101974.03
2023-12-16T07:34:55.953Z,101987.72
2023-12-16T07:39:57.691Z,102001.72
2023-12-16T07:44:59.408Z,101997.16
2023-12-16T07:50:01.166Z,102000.25
2023-12-16T07:55:03.618Z,101974.34
2023-12-16T08:00:06.098Z,101960.97
2023-12-16T08:05:08.146Z,101957.25
2023-12-16T08:10:10.016Z,101980.41
2023-12-16T08:15:11.721Z,101993.75
2023-12-16T08:20:13.485Z,102006.91
2023-12-16T08:25:15.273Z,102018.16
2023-12-16T08:30:16.968Z,102019.03
2023-12-16T08:35:19.233Z,102018.28
2023-12-16T08:40:21.054Z,102030.13
2023-12-16T08:45:22.729Z,102020.09
2023-12-16T08:50:24.779Z,102023.47
2023-12-16T08:55:28.011Z,102028.06
2023-12-16T09:00:29.856Z,102023.00
2023-12-16T09:05:32.447Z,102026.06
2023-12-16T09:10:36.224Z,102026.16
2023-12-16T09:15:37.910Z,102033.72
2023-12-16T09:20:39.540Z,102031.72
2023-12-16T09:25:41.234Z,102048.72
2023-12-16T09:30:42.978Z,102047.66
2023-12-16T09:35:44.641Z,102044.84
2023-12-16T09:40:46.395Z,102041.16
2023-12-16T09:45:48.200Z,102044.16
2023-12-16T09:50:49.997Z,102044.84
2023-12-16T09:55:54.833Z,102032.09
2023-12-16T10:00:57.413Z,102022.75
2023-12-16T10:05:59.225Z,102017.13
2023-12-16T10:11:11.770Z,102020.28
2023-12-16T10:16:23.222Z,101989.28
2023-12-16T10:21:29.597Z,101976.78
2023-12-16T10:26:32.759Z,101966.47
2023-12-16T10:31:35.876Z,101973.88
2023-12-16T10:36:37.692Z,101985.94
2023-12-16T10:41:39.349Z,101976.22
2023-12-16T10:46:43.111Z,101978.72
2023-12-16T10:51:49.631Z,101971.91
2023-12-16T10:57:03.974Z,101963.41
2023-12-16T11:02:18.632Z,101954.34
2023-12-16T11:07:24.002Z,101957.13
2023-12-16T11:12:26.606Z,101945.28
2023-12-16T11:17:34.455Z,101934.00
2023-12-16T11:22:47.702Z,101921.75
2023-12-16T11:27:50.639Z,101909.09
2023-12-16T11:32:56.587Z,101900.16
2023-12-16T11:37:58.358Z,101896.84
2023-12-16T11:43:04.065Z,101875.34
2023-12-16T11:48:06.470Z,101893.44
2023-12-16T11:53:10.635Z,101885.03
2023-12-16T11:58:12.439Z,101868.69
2023-12-16T12:03:14.161Z,101865.19
2023-12-16T12:08:15.834Z,101855.94
2023-12-16T12:13:17.540Z,101848.25
2023-12-16T12:18:19.289Z,101835.00
2023-12-16T12:23:21.046Z,101838.50
2023-12-16T12:28:22.959Z,101839.25
2023-12-16T12:33:24.927Z,101822.31
2023-12-16T12:38:29.135Z,101821.13
2023-12-16T12:43:32.305Z,101809.53
2023-12-16T12:48:34.725Z,101818.59
2023-12-16T12:53:37.129Z,101829.41
2023-12-16T12:58:38.823Z,101828.00
2023-12-16T13:03:41.618Z,101833.75
2023-12-16T13:08:43.372Z,101834.50
2023-12-16T13:13:45.011Z,101826.38
2023-12-16T13:18:47.508Z,101816.78
2023-12-16T13:23:49.592Z,101801.38
2023-12-16T13:28:51.345Z,101803.75
2023-12-16T13:33:53.070Z,101800.97
2023-12-16T13:38:56.704Z,101798.91
2023-12-16T13:43:58.372Z,101803.22
2023-12-16T13:49:03.037Z,101796.56
2023-12-16T13:54:05.058Z,101781.53
2023-12-16T13:59:06.718Z,101767.91
2023-12-16T14:04:08.384Z,101749.91
2023-12-16T14:09:10.340Z,101753.28
2023-12-16T14:14:12.393Z,101753.53
2023-12-16T14:19:14.134Z,101746.75
2023-12-16T14:24:15.870Z,101747.56
2023-12-16T14:29:17.513Z,101751.19
2023-12-16T14:34:20.374Z,101754.59
2023-12-16T14:39:22.197Z,101754.34
2023-12-16T14:44:23.880Z,101745.88
2023-12-16T14:49:28.381Z,101736.53
2023-12-16T14:54:30.084Z,101729.78
2023-12-16T14:59:32.099Z,101732.94
2023-12-16T15:04:34.947Z,101737.59
2023-12-16T15:09:37.864Z,101737.63
2023-12-16T15:14:39.638Z,101744.31
2023-12-16T15:19:41.386Z,101751.72
2023-12-16T15:24:43.101Z,101762.50
2023-12-16T15:29:45.153Z,101761.28
2023-12-16T15:34:46.934Z,101752.75
2023-12-16T15:39:48.660Z,101753.84
2023-12-16T15:44:50.423Z,101760.69
2023-12-16T15:49:53.498Z,101759.81
2023-12-16T15:54:55.256Z,101755.44
2023-12-16T15:59:57.115Z,101751.41
2023-12-16T16:04:58.820Z,101737.13
2023-12-16T16:10:00.711Z,101730.50
2023-12-16T16:15:02.432Z,101731.19
2023-12-16T16:20:08.384Z,101728.09
2023-12-16T16:25:11.608Z,101721.88
2023-12-16T16:30:13.755Z,101730.88
2023-12-16T16:35:15.526Z,101722.56
2023-12-16T16:40:18.475Z,101712.25
2023-12-16T16:45:20.252Z,101716.59
2023-12-16T16:50:21.949Z,101717.72
2023-12-16T16:55:23.833Z,101721.78
2023-12-16T17:00:25.624Z,101724.16
2023-12-16T17:05:27.408Z,101727.59
2023-12-16T17:10:29.615Z,101719.75
2023-12-16T17:15:31.321Z,101735.13
2023-12-16T17:20:33.123Z,101740.28
2023-12-16T17:25:34.798Z,101742.38
2023-12-16T17:30:36.552Z,101733.22
2023-12-16T17:35:39.754Z,101734.06
2023-12-16T17:40:41.536Z,101734.44
2023-12-16T17:45:43.242Z,101737.97
2023-12-16T17:50:46.066Z,101740.56
2023-12-16T17:55:47.719Z,101741.78
2023-12-16T18:00:49.468Z,101743.59
2023-12-16T18:05:51.237Z,101745.09
2023-12-16T18:10:53.445Z,101746.97
2023-12-16T18:15:55.354Z,101744.47
2023-12-16T18:21:00.950Z,101760.13
2023-12-16T18:26:09.262Z,101745.88
2023-12-16T18:31:11.159Z,101737.66
2023-12-16T18:36:12.924Z,101748.19
2023-12-16T18:41:14.635Z,101740.25
2023-12-16T18:46:16.333Z,101756.66
2023-12-16T18:51:18.299Z,101760.19
2023-12-16T18:56:20.021Z,101746.31
2023-12-16T19:01:21.738Z,101744.00
2023-12-16T19:06:23.682Z,101737.25
2023-12-16T19:11:25.326Z,101728.69
2023-12-16T19:16:26.976Z,101733.72
2023-12-16T19:21:28.780Z,101743.78
2023-12-16T19:26:30.464Z,101751.28
2023-12-16T19:31:32.154Z,101760.06
2023-12-16T19:36:34.093Z,101765.22
2023-12-16T19:41:35.792Z,101763.50
2023-12-16T19:46:37.496Z,101741.97
2023-12-16T19:51:39.544Z,101748.63
2023-12-16T19:56:41.201Z,101752.59
2023-12-16T20:01:47.868Z,101749.78
2023-12-16T20:06:49.751Z,101761.34
2023-12-16T20:11:51.774Z,101777.75
2023-12-16T20:16:53.452Z,101787.72
2023-12-16T20:21:57.410Z,101794.03
2023-12-16T20:26:59.323Z,101787.06
2023-12-16T20:32:01.115Z,101773.06
2023-12-16T20:37:02.821Z,101777.84
2023-12-16T20:42:04.740Z,101767.72
2023-12-16T20:47:06.545Z,101750.97
2023-12-16T20:52:08.290Z,101748.63
2023-12-16T20:57:10.088Z,101741.47
2023-12-16T21:02:11.759Z,101721.09
2023-12-16T21:07:15.086Z,101715.84
2023-12-16T21:12:17.050Z,101746.06
2023-12-16T21:17:20.102Z,101760.28
2023-12-16T21:22:21.792Z,101743.63
2023-12-16T21:27:23.538Z,101730.75
2023-12-16T21:32:25.358Z,101716.41
2023-12-16T21:37:28.460Z,101717.28
2023-12-16T21:42:30.112Z,101720.25
2023-12-16T21:47:31.920Z,101721.75
2023-12-16T21:52:33.614Z,101721.00
2023-12-16T21:57:35.845Z,101728.28
2023-12-16T22:02:37.548Z,101752.94
2023-12-16T22:07:39.543Z,101757.63
2023-12-16T22:12:41.324Z,101760.41
2023-12-16T22:17:43.730Z,101745.34
2023-12-16T22:22:45.657Z,101755.47
2023-12-16T22:27:47.300Z,101759.59
2023-12-16T22:32:49.074Z,101756.91
2023-12-16T22:37:50.872Z,101762.66
2023-12-16T22:42:52.684Z,101760.09
2023-12-16T22:47:54.457Z,101755.91
2023-12-16T22:52:56.215Z,101757.94
2023-12-16T22:57:57.867Z,101754.19
2023-12-16T23:02:59.797Z,101770.56
2023-12-16T23:08:01.506Z,101786.31
2023-12-16T23:13:03.204Z,101780.59
2023-12-16T23:18:05.971Z,101762.28
2023-12-16T23:23:07.714Z,101778.25
2023-12-16T23:28:09.363Z,101756.59
2023-12-16T23:33:11.261Z,101759.25
2023-12-16T23:38:12.959Z,101750.69
2023-12-16T23:43:14.618Z,101765.88
2023-12-16T23:48:16.453Z,101758.94
2023-12-16T23:53:18.174Z,101771.09
2023-12-16T23:58:19.881Z,101779.41
